createdAt,value
2022-08-08T00:01:08.358Z,1.93
2022-08-08T00:03:47.446Z,2.20
2022-08-08T00:06:28.695Z,2.20
2022-08-08T00:09:07.662Z,1.83
2022-08-08T00:11:47.167Z,2.00
2022-08-08T00:14:57.319Z,2.30
2022-08-08T00:18:01.831Z,2.50
2022-08-08T00:20:37.204Z,2.30
2022-08-08T00:23:08.305Z,2.30
2022-08-08T00:25:46.250Z,2.10
2022-08-08T00:28:34.082Z,2.23
2022-08-08T00:32:15.229Z,2.10
2022-08-08T00:34:20.576Z,1.97
2022-08-08T00:36:54.955Z,1.77
2022-08-08T00:41:12.144Z,2.10
2022-08-08T00:42:48.258Z,2.23
2022-08-08T00:45:56.049Z,2.10
2022-08-08T00:48:59.206Z,2.20
2022-08-08T00:51:58.962Z,2.00
2022-08-08T00:55:03.983Z,2.33
2022-08-08T00:58:12.668Z,2.30
2022-08-08T01:00:50.671Z,1.80
2022-08-08T01:04:07.228Z,2.20
2022-08-08T01:07:07.459Z,1.77
2022-08-08T01:10:18.055Z,2.00
2022-08-08T01:13:03.446Z,2.07
2022-08-08T01:15:53.204Z,1.97
2022-08-08T01:18:52.700Z,2.10
2022-08-08T01:22:12.360Z,2.17
2022-08-08T01:24:57.396Z,1.80
2022-08-08T01:28:07.121Z,2.00
2022-08-08T01:32:05.704Z,2.10
2022-08-08T01:34:42.921Z,1.90
2022-08-08T01:37:48.005Z,2.10
2022-08-08T01:40:28.141Z,2.17
2022-08-08T01:43:03.157Z,2.20
2022-08-08T01:45:54.283Z,2.50
2022-08-08T01:48:36.628Z,2.43
2022-08-08T01:52:02.806Z,2.53
2022-08-08T01:55:26.006Z,2.07
2022-08-08T01:57:33.754Z,2.30
2022-08-08T02:00:18.790Z,1.83
2022-08-08T02:03:02.367Z,1.80
2022-08-08T02:05:56.633Z,1.97
2022-08-08T02:08:37.895Z,1.77
2022-08-08T02:11:23.668Z,2.03
2022-08-08T02:13:57.081Z,1.70
2022-08-08T02:16:34.599Z,1.97
2022-08-08T02:19:41.829Z,2.10
2022-08-08T02:22:18.786Z,2.10
2022-08-08T02:24:53.608Z,2.30
2022-08-08T02:27:28.101Z,2.00
2022-08-08T02:30:20.697Z,2.07
2022-08-08T02:33:21.399Z,1.90
2022-08-08T02:36:03.806Z,1.90
2022-08-08T02:39:00.921Z,1.70
2022-08-08T02:42:04.236Z,2.13
2022-08-08T02:45:00.964Z,1.83
2022-08-08T02:48:25.938Z,2.17
2022-08-08T02:51:55.430Z,2.17
2022-08-08T02:54:54.814Z,1.80
2022-08-08T02:57:54.524Z,1.70
2022-08-08T03:00:32.215Z,1.60
2022-08-08T03:05:00.988Z,1.90
2022-08-08T03:06:55.275Z,1.90
2022-08-08T03:10:08.292Z,2.00
2022-08-08T03:15:53.519Z,2.13
2022-08-08T03:16:43.339Z,1.70
2022-08-08T03:19:29.776Z,1.97
2022-08-08T03:21:59.826Z,2.10
2022-08-08T03:24:29.461Z,2.03
2022-08-08T03:27:10.139Z,2.10
2022-08-08T03:29:56.200Z,1.63
2022-08-08T03:32:47.557Z,1.80
2022-08-08T03:35:22.596Z,2.10
2022-08-08T03:38:52.916Z,1.90
2022-08-08T03:40:40.443Z,1.83
2022-08-08T03:43:15.623Z,1.93
2022-08-08T03:46:06.367Z,1.90
2022-08-08T03:49:09.854Z,1.83
2022-08-08T03:51:40.412Z,2.10
2022-08-08T03:54:15.479Z,1.80
2022-08-08T03:58:30.074Z,2.37
2022-08-08T04:00:02.890Z,1.80
2022-08-08T04:02:51.845Z,2.00
2022-08-08T04:05:28.020Z,1.70
2022-08-08T04:07:57.847Z,1.83
2022-08-08T04:10:32.190Z,2.10
2022-08-08T04:13:08.216Z,2.00
2022-08-08T04:15:55.073Z,1.70
2022-08-08T04:18:32.516Z,2.23
2022-08-08T04:21:01.039Z,1.90
2022-08-08T04:24:05.781Z,2.47
2022-08-08T04:26:21.156Z,2.20
2022-08-08T04:28:55.330Z,2.03
2022-08-08T04:31:56.769Z,1.97
2022-08-08T04:34:11.575Z,2.07
2022-08-08T04:36:39.964Z,1.70
2022-08-08T04:39:48.584Z,2.07
2022-08-08T04:41:56.499Z,1.80
2022-08-08T04:44:26.832Z,2.03
2022-08-08T04:46:55.096Z,1.83
2022-08-08T04:49:28.997Z,1.80
2022-08-08T04:52:14.108Z,1.90
2022-08-08T04:54:42.738Z,2.00
2022-08-08T04:57:10.887Z,1.73
2022-08-08T04:59:42.416Z,2.20
2022-08-08T05:02:13.481Z,1.90
2022-08-08T05:04:44.631Z,2.27
2022-08-08T05:07:14.875Z,4.00
2022-08-08T05:09:43.868Z,2.93
2022-08-08T05:12:20.373Z,2.00
2022-08-08T05:14:52.308Z,2.03
2022-08-08T05:17:21.645Z,1.77
2022-08-08T05:20:10.353Z,2.00
2022-08-08T05:22:37.811Z,1.60
2022-08-08T05:25:06.841Z,2.10
2022-08-08T05:27:41.570Z,1.90
2022-08-08T05:30:14.077Z,2.97
2022-08-08T05:32:42.722Z,3.20
2022-08-08T05:35:13.686Z,4.47
2022-08-08T05:37:52.901Z,2.90
2022-08-08T05:40:28.356Z,3.10
2022-08-08T05:43:03.315Z,2.47
2022-08-08T05:45:55.300Z,2.40
2022-08-08T05:48:34.670Z,2.40
2022-08-08T05:51:15.038Z,1.70
2022-08-08T05:54:25.543Z,3.70
2022-08-08T05:56:38.625Z,4.40
2022-08-08T05:59:58.764Z,4.43
2022-08-08T06:02:32.170Z,2.13
2022-08-08T06:05:16.306Z,2.57
2022-08-08T06:07:53.263Z,5.00
2022-08-08T06:10:33.199Z,2.13
2022-08-08T06:13:02.891Z,2.23
2022-08-08T06:15:50.500Z,3.50
2022-08-08T06:18:24.028Z,2.30
2022-08-08T06:20:57.161Z,2.37
2022-08-08T06:23:52.515Z,2.10
2022-08-08T06:26:38.855Z,2.00
2022-08-08T06:29:25.967Z,3.80
2022-08-08T06:32:10.422Z,3.70
2022-08-08T06:34:56.375Z,3.40
2022-08-08T06:37:40.497Z,2.23
2022-08-08T06:40:16.308Z,2.20
2022-08-08T06:42:57.032Z,1.80
2022-08-08T06:45:26.074Z,1.70
2022-08-08T06:48:00.862Z,2.47
2022-08-08T06:50:33.860Z,2.80
2022-08-08T06:53:13.959Z,1.77
2022-08-08T06:55:47.238Z,2.80
2022-08-08T06:58:30.686Z,1.90
2022-08-08T07:01:11.649Z,2.93
2022-08-08T07:04:37.412Z,1.90
2022-08-08T07:06:50.510Z,3.60
2022-08-08T07:09:21.797Z,1.87
2022-08-08T07:11:56.551Z,2.00
2022-08-08T07:14:28.834Z,3.33
2022-08-08T07:17:09.460Z,1.80
2022-08-08T07:19:44.676Z,1.73
2022-08-08T07:22:18.734Z,2.57
2022-08-08T07:24:53.434Z,2.00
2022-08-08T07:27:35.659Z,2.00
2022-08-08T07:30:25.550Z,2.50
2022-08-08T07:32:59.414Z,1.80
2022-08-08T07:35:30.954Z,1.70
2022-08-08T07:38:09.913Z,1.73
2022-08-08T07:40:47.370Z,1.70
2022-08-08T07:43:16.947Z,1.90
2022-08-08T07:46:17.724Z,1.80
2022-08-08T07:48:48.380Z,1.73
2022-08-08T07:51:24.328Z,1.50
2022-08-08T07:54:27.342Z,1.60
2022-08-08T07:57:01.912Z,1.43
2022-08-08T07:59:37.472Z,1.40
2022-08-08T08:02:34.999Z,1.20
2022-08-08T08:04:57.827Z,1.23
2022-08-08T08:07:32.265Z,1.20
2022-08-08T08:10:12.496Z,1.40
2022-08-08T08:12:45.007Z,1.37
2022-08-08T08:15:19.108Z,1.27
2022-08-08T08:17:55.871Z,1.30
2022-08-08T08:20:30.155Z,1.40
2022-08-08T08:22:58.826Z,1.00
2022-08-08T08:25:40.754Z,1.43
2022-08-08T08:28:16.904Z,1.30
2022-08-08T08:30:50.111Z,1.57
2022-08-08T08:33:18.158Z,1.30
2022-08-08T08:36:19.240Z,1.30
2022-08-08T08:38:36.397Z,1.20
2022-08-08T08:41:13.214Z,1.20
2022-08-08T08:43:46.408Z,1.50
2022-08-08T08:46:15.209Z,1.57
2022-08-08T08:48:54.905Z,1.20
2022-08-08T08:51:27.228Z,1.50
2022-08-08T08:54:00.031Z,1.37
2022-08-08T08:56:31.036Z,1.50
2022-08-08T08:59:01.393Z,1.70
2022-08-08T09:01:32.794Z,1.40
2022-08-08T09:04:02.965Z,1.23
2022-08-08T09:06:34.663Z,1.17
2022-08-08T09:09:07.055Z,1.10
2022-08-08T09:11:47.412Z,1.17
2022-08-08T09:14:28.477Z,1.30
2022-08-08T09:16:56.750Z,1.30
2022-08-08T09:22:00.703Z,1.20
2022-08-08T09:22:26.185Z,1.33
2022-08-08T09:25:00.151Z,1.35
2022-08-08T09:27:56.082Z,1.55
2022-08-08T09:30:20.221Z,1.23
2022-08-08T09:33:12.752Z,1.30
2022-08-08T09:35:48.997Z,1.50
2022-08-08T09:38:32.723Z,1.20
2022-08-08T09:41:06.316Z,1.35
2022-08-08T09:44:06.294Z,1.20
2022-08-08T09:46:38.900Z,1.40
2022-08-08T09:49:41.650Z,1.40
2022-08-08T09:52:07.486Z,1.30
2022-08-08T09:54:43.850Z,1.27
2022-08-08T09:57:17.349Z,1.15
2022-08-08T10:00:14.828Z,1.30
2022-08-08T10:02:40.514Z,1.40
2022-08-08T10:05:15.275Z,1.50
2022-08-08T10:07:59.924Z,1.30
2022-08-08T10:10:31.914Z,1.20
2022-08-08T10:13:14.111Z,1.88
2022-08-08T10:16:01.069Z,1.40
2022-08-08T10:18:30.996Z,1.48
2022-08-08T10:21:08.148Z,1.55
2022-08-08T10:23:44.161Z,1.55
2022-08-08T10:26:30.936Z,1.80
2022-08-08T10:29:11.240Z,2.75
2022-08-08T10:31:59.787Z,1.50
2022-08-08T10:34:29.553Z,1.20
2022-08-08T10:37:00.264Z,1.40
2022-08-08T10:39:31.463Z,1.27
2022-08-08T10:42:16.442Z,1.35
2022-08-08T10:44:45.666Z,1.50
2022-08-08T10:47:20.561Z,1.52
2022-08-08T10:50:01.251Z,1.60
2022-08-08T10:52:32.301Z,1.50
2022-08-08T10:55:06.205Z,1.30
2022-08-08T10:57:45.165Z,1.17
2022-08-08T11:00:22.878Z,1.27
2022-08-08T11:02:55.271Z,1.27
2022-08-08T11:05:23.955Z,1.40
2022-08-08T11:08:37.937Z,1.80
2022-08-08T11:10:46.817Z,1.30
2022-08-08T11:13:31.721Z,1.40
2022-08-08T11:16:08.027Z,1.75
2022-08-08T11:18:41.078Z,1.30
2022-08-08T11:21:10.284Z,1.40
2022-08-08T11:24:02.330Z,1.70
2022-08-08T11:26:31.742Z,1.65
2022-08-08T11:29:03.112Z,1.40
2022-08-08T11:31:46.794Z,1.40
2022-08-08T11:34:24.301Z,1.10
2022-08-08T11:37:04.462Z,1.63
2022-08-08T11:39:57.190Z,1.17
2022-08-08T11:42:30.786Z,1.40
2022-08-08T11:45:00.186Z,1.50
2022-08-08T11:47:39.766Z,1.20
2022-08-08T11:50:12.244Z,1.70
2022-08-08T11:52:47.224Z,1.30
2022-08-08T11:55:20.294Z,1.23
2022-08-08T11:57:51.604Z,1.27
2022-08-08T12:00:20.851Z,1.25
2022-08-08T12:02:52.229Z,1.20
2022-08-08T12:05:33.790Z,2.35
2022-08-08T12:08:02.328Z,1.42
2022-08-08T12:10:33.489Z,1.40
2022-08-08T12:13:03.230Z,1.70
2022-08-08T12:15:42.551Z,1.10
2022-08-08T12:18:24.301Z,1.10
2022-08-08T12:20:56.619Z,1.00
2022-08-08T12:23:43.309Z,1.05
2022-08-08T12:26:28.473Z,1.20
2022-08-08T12:29:19.706Z,1.17
2022-08-08T12:31:53.804Z,1.10
2022-08-08T12:34:36.436Z,1.30
2022-08-08T12:37:08.308Z,1.30
2022-08-08T12:40:00.873Z,1.13
2022-08-08T12:42:27.472Z,1.20
2022-08-08T12:45:20.041Z,1.30
2022-08-08T12:48:10.307Z,1.25
2022-08-08T12:50:50.797Z,1.40
2022-08-08T12:53:30.341Z,1.13
2022-08-08T12:56:19.373Z,1.30
2022-08-08T12:58:54.386Z,1.10
2022-08-08T13:01:36.950Z,1.10
2022-08-08T13:04:18.983Z,1.20
2022-08-08T13:06:56.860Z,1.20
2022-08-08T13:10:00.492Z,1.30
2022-08-08T13:12:29.469Z,1.10
2022-08-08T13:14:59.323Z,1.42
2022-08-08T13:18:09.407Z,1.20
2022-08-08T13:20:18.305Z,1.10
2022-08-08T13:22:47.449Z,1.27
2022-08-08T13:25:17.628Z,1.45
2022-08-08T13:27:56.522Z,1.30
2022-08-08T13:30:28.680Z,1.10
2022-08-08T13:32:58.086Z,1.10
2022-08-08T13:35:29.853Z,1.50
2022-08-08T13:38:08.582Z,1.30
2022-08-08T13:40:45.172Z,1.45
2022-08-08T13:43:15.863Z,1.33
2022-08-08T13:45:47.723Z,1.40
2022-08-08T13:48:17.142Z,1.40
2022-08-08T13:50:52.502Z,1.25
2022-08-08T13:53:28.058Z,1.20
2022-08-08T13:56:05.352Z,1.35
2022-08-08T13:58:34.578Z,1.40
2022-08-08T14:01:13.763Z,1.30
2022-08-08T14:03:54.992Z,1.08
2022-08-08T14:06:34.217Z,1.40
2022-08-08T14:09:24.339Z,1.27
2022-08-08T14:11:54.420Z,1.42
2022-08-08T14:14:26.265Z,1.35
2022-08-08T14:16:55.600Z,1.45
2022-08-08T14:19:57.345Z,1.27
2022-08-08T14:22:23.293Z,1.15
2022-08-08T14:24:54.553Z,1.30
2022-08-08T14:27:29.475Z,1.30
2022-08-08T14:30:03.216Z,1.40
2022-08-08T14:32:37.083Z,1.42
2022-08-08T14:35:07.886Z,1.55
2022-08-08T14:37:43.002Z,1.50
2022-08-08T14:40:27.328Z,1.58
2022-08-08T14:43:01.516Z,1.20
2022-08-08T14:46:03.341Z,1.30
2022-08-08T14:48:41.392Z,1.40
2022-08-08T14:51:23.417Z,1.42
2022-08-08T14:53:55.165Z,1.30
2022-08-08T14:56:25.556Z,1.38
2022-08-08T14:58:55.379Z,1.10
2022-08-08T15:01:40.552Z,1.50
2022-08-08T15:04:10.357Z,1.75
2022-08-08T15:06:39.031Z,1.40
2022-08-08T15:09:10.404Z,1.40
2022-08-08T15:11:43.246Z,1.38
2022-08-08T15:14:16.086Z,1.30
2022-08-08T15:16:44.677Z,1.35
2022-08-08T15:19:15.002Z,1.17
2022-08-08T15:21:44.817Z,1.40
2022-08-08T15:24:16.111Z,1.20
2022-08-08T15:26:52.257Z,1.42
2022-08-08T15:29:24.496Z,1.30
2022-08-08T15:32:17.410Z,1.30
2022-08-08T15:34:42.028Z,1.52
2022-08-08T15:37:10.084Z,1.25
2022-08-08T15:39:41.055Z,1.20
2022-08-08T15:42:17.941Z,1.30
2022-08-08T15:44:59.757Z,1.40
2022-08-08T15:47:28.014Z,1.20
2022-08-08T15:49:59.327Z,1.13
2022-08-08T15:52:27.386Z,3.80
2022-08-08T15:54:55.440Z,1.50
2022-08-08T15:57:23.692Z,1.88
2022-08-08T16:00:25.634Z,1.30
2022-08-08T16:02:44.641Z,1.42
2022-08-08T16:05:21.309Z,1.42
2022-08-08T16:07:53.075Z,1.38
2022-08-08T16:13:03.966Z,1.50
2022-08-08T16:13:45.231Z,1.63
2022-08-08T16:16:13.173Z,1.48
2022-08-08T16:18:56.478Z,1.20
2022-08-08T16:21:29.106Z,1.20
2022-08-08T16:23:57.739Z,1.50
2022-08-08T16:26:34.391Z,1.23
2022-08-08T16:29:08.601Z,1.23
2022-08-08T16:31:41.031Z,1.25
2022-08-08T16:34:11.097Z,1.40
2022-08-08T16:36:40.832Z,1.30
2022-08-08T16:39:27.648Z,1.20
2022-08-08T16:42:01.242Z,1.45
2022-08-08T16:44:34.023Z,1.25
2022-08-08T16:47:17.422Z,1.33
2022-08-08T16:49:47.830Z,1.40
2022-08-08T16:55:03.235Z,1.27
2022-08-08T16:55:42.917Z,0.85
2022-08-08T16:58:15.359Z,1.38
2022-08-08T17:00:49.123Z,1.13
2022-08-08T17:03:24.938Z,1.45
2022-08-08T17:06:37.274Z,1.27
2022-08-08T17:08:57.685Z,1.10
2022-08-08T17:11:28.334Z,1.33
2022-08-08T17:14:18.041Z,1.02
2022-08-08T17:16:51.689Z,0.95
2022-08-08T17:19:25.216Z,0.93
2022-08-08T17:21:55.044Z,0.75
2022-08-08T17:24:28.050Z,1.02
2022-08-08T17:26:59.062Z,1.10
2022-08-08T17:29:27.541Z,0.93
2022-08-08T17:31:57.479Z,1.10
2022-08-08T17:34:48.426Z,1.00
2022-08-08T17:37:15.714Z,1.00
2022-08-08T17:40:06.075Z,1.10
2022-08-08T17:42:36.011Z,1.15
2022-08-08T17:45:04.594Z,0.85
2022-08-08T17:47:40.706Z,1.13
2022-08-08T17:50:10.609Z,1.00
2022-08-08T17:52:43.148Z,1.35
2022-08-08T17:56:05.737Z,1.00
2022-08-08T17:58:00.019Z,1.00
2022-08-08T18:00:31.410Z,1.10
2022-08-08T18:03:07.782Z,1.00
2022-08-08T18:05:48.610Z,0.90
2022-08-08T18:08:36.773Z,1.00
2022-08-08T18:11:11.755Z,1.35
2022-08-08T18:13:43.145Z,0.93
2022-08-08T18:16:12.783Z,1.10
2022-08-08T18:18:52.334Z,0.93
2022-08-08T18:21:35.466Z,1.10
2022-08-08T18:24:18.980Z,0.90
2022-08-08T18:26:54.752Z,1.00
2022-08-08T18:29:29.990Z,1.00
2022-08-08T18:32:03.437Z,0.95
2022-08-08T18:34:32.930Z,0.85
2022-08-08T18:37:04.912Z,1.00
2022-08-08T18:39:36.991Z,0.98
2022-08-08T18:42:10.246Z,0.95
2022-08-08T18:44:42.430Z,1.00
2022-08-08T18:47:24.916Z,1.25
2022-08-08T18:49:57.598Z,1.80
2022-08-08T18:52:27.125Z,1.10
2022-08-08T18:54:59.609Z,1.00
2022-08-08T18:57:41.609Z,1.00
2022-08-08T19:00:16.642Z,1.08
2022-08-08T19:02:56.110Z,1.00
2022-08-08T19:05:30.633Z,1.08
2022-08-08T19:08:02.336Z,0.93
2022-08-08T19:10:32.554Z,1.00
2022-08-08T19:13:03.241Z,0.98
2022-08-08T19:15:33.694Z,1.17
2022-08-08T19:18:30.670Z,1.02
2022-08-08T19:20:51.041Z,0.90
2022-08-08T19:23:21.671Z,1.02
2022-08-08T19:26:20.403Z,0.93
2022-08-08T19:28:41.816Z,1.02
2022-08-08T19:31:12.965Z,1.10
2022-08-08T19:34:05.148Z,1.10
2022-08-08T19:36:33.554Z,1.10
2022-08-08T19:39:01.686Z,1.00
2022-08-08T19:41:33.623Z,1.23
2022-08-08T19:44:03.324Z,1.02
2022-08-08T19:46:33.175Z,0.90
2022-08-08T19:49:03.150Z,1.00
2022-08-08T19:51:34.720Z,0.90
2022-08-08T19:54:08.509Z,1.20
2022-08-08T19:56:40.398Z,1.30
2022-08-08T19:59:09.635Z,1.17
2022-08-08T20:01:59.768Z,1.13
2022-08-08T20:04:26.636Z,0.87
2022-08-08T20:06:56.877Z,1.27
2022-08-08T20:09:30.079Z,0.80
2022-08-08T20:12:02.459Z,0.97
2022-08-08T20:14:34.318Z,0.97
2022-08-08T20:17:04.124Z,1.00
2022-08-08T20:19:34.344Z,1.07
2022-08-08T20:22:13.217Z,1.30
2022-08-08T20:24:49.289Z,1.00
2022-08-08T20:27:33.055Z,1.00
2022-08-08T20:30:12.130Z,1.07
2022-08-08T20:33:00.329Z,0.90
2022-08-08T20:35:56.635Z,1.00
2022-08-08T20:38:17.528Z,1.07
2022-08-08T20:40:50.147Z,0.90
2022-08-08T20:43:43.127Z,1.00
2022-08-08T20:46:08.746Z,1.20
2022-08-08T20:48:38.192Z,0.90
2022-08-08T20:51:09.075Z,1.00
2022-08-08T20:54:00.424Z,0.97
2022-08-08T20:56:35.908Z,1.20
2022-08-08T20:59:09.112Z,0.90
2022-08-08T21:02:05.267Z,1.00
2022-08-08T21:04:27.428Z,0.93
2022-08-08T21:06:56.155Z,1.13
2022-08-08T21:09:31.481Z,1.10
2022-08-08T21:12:03.017Z,1.30
2022-08-08T21:14:34.690Z,1.30
2022-08-08T21:17:06.208Z,1.10
2022-08-08T21:19:45.912Z,1.20
2022-08-08T21:22:15.413Z,1.10
2022-08-08T21:24:53.416Z,0.93
2022-08-08T21:28:05.243Z,1.37
2022-08-08T21:30:19.431Z,1.07
2022-08-08T21:32:51.615Z,1.10
2022-08-08T21:36:16.191Z,1.23
2022-08-08T21:38:16.912Z,1.03
2022-08-08T21:40:55.638Z,1.20
2022-08-08T21:43:25.799Z,1.03
2022-08-08T21:48:04.938Z,1.20
2022-08-08T21:48:53.093Z,1.10
2022-08-08T21:54:27.150Z,1.07
2022-08-08T21:54:30.981Z,1.17
2022-08-08T21:57:00.288Z,1.10
2022-08-08T22:00:03.041Z,1.10
2022-08-08T22:02:19.407Z,0.90
2022-08-08T22:04:52.581Z,1.10
2022-08-08T22:07:20.621Z,1.10
2022-08-08T22:09:55.074Z,1.20
2022-08-08T22:12:23.167Z,1.10
2022-08-08T22:14:53.986Z,1.10
2022-08-08T22:17:23.391Z,0.97
2022-08-08T22:20:12.617Z,0.90
2022-08-08T22:22:39.364Z,1.10
2022-08-08T22:25:19.684Z,0.90
2022-08-08T22:28:02.593Z,1.10
2022-08-08T22:30:43.134Z,1.10
2022-08-08T22:33:22.228Z,1.07
2022-08-08T22:36:12.394Z,0.90
2022-08-08T22:38:48.169Z,0.97
2022-08-08T22:41:21.779Z,1.00
2022-08-08T22:44:02.162Z,0.90
2022-08-08T22:46:34.312Z,1.10
2022-08-08T22:49:09.042Z,1.00
2022-08-08T22:51:42.426Z,1.10
2022-08-08T22:54:30.623Z,1.00
2022-08-08T22:57:11.367Z,1.00
2022-08-08T22:59:48.490Z,0.87
2022-08-08T23:02:28.744Z,1.23
2022-08-08T23:05:04.716Z,0.93
2022-08-08T23:07:49.251Z,1.00
2022-08-08T23:10:25.308Z,1.00
2022-08-08T23:12:54.680Z,0.97
2022-08-08T23:16:41.605Z,1.20
2022-08-08T23:18:12.208Z,0.97
2022-08-08T23:20:43.486Z,1.37
2022-08-08T23:23:12.512Z,1.00
2022-08-08T23:25:47.897Z,1.13
2022-08-08T23:28:17.584Z,1.00
2022-08-08T23:30:46.189Z,1.00
2022-08-08T23:33:19.520Z,1.10
2022-08-08T23:36:07.939Z,0.90
2022-08-08T23:38:44.177Z,1.07
2022-08-08T23:41:24.788Z,1.07
2022-08-08T23:43:56.603Z,1.00
2022-08-08T23:49:03.211Z,1.00
2022-08-08T23:49:15.441Z,1.23
2022-08-08T23:52:06.057Z,0.93
2022-08-08T23:54:42.233Z,0.80
2022-08-08T23:57:27.577Z,0.97
